sensor_id;sensor_type;location;lat;lon;timestamp;P1;durP1;ratioP1;P2;durP2;ratioP2
15454;SDS011;21057;51.024;7.540;2022-12-24T00:02:21;25.13;;;22.80;;
15454;SDS011;21057;51.024;7.540;2022-12-24T00:04:47;24.43;;;22.20;;
15454;SDS011;21057;51.024;7.540;2022-12-24T00:07:14;25.33;;;23.03;;
15454;SDS011;21057;51.024;7.540;2022-12-24T00:09:43;25.50;;;22.97;;
15454;SDS011;21057;51.024;7.540;2022-12-24T00:12:09;23.77;;;22.00;;
15454;SDS011;21057;51.024;7.540;2022-12-24T00:14:36;24.67;;;22.80;;
15454;SDS011;21057;51.024;7.540;2022-12-24T00:17:03;24.23;;;22.40;;
15454;SDS011;21057;51.024;7.540;2022-12-24T00:19:30;24.70;;;22.80;;
15454;SDS011;21057;51.024;7.540;2022-12-24T00:21:57;27.97;;;23.50;;
15454;SDS011;21057;51.024;7.540;2022-12-24T00:24:23;25.43;;;22.70;;
15454;SDS011;21057;51.024;7.540;2022-12-24T00:26:52;24.77;;;22.20;;
15454;SDS011;21057;51.024;7.540;2022-12-24T00:29:19;23.27;;;21.87;;
15454;SDS011;21057;51.024;7.540;2022-12-24T00:31:46;24.40;;;22.17;;
15454;SDS011;21057;51.024;7.540;2022-12-24T00:34:13;24.27;;;22.20;;
15454;SDS011;21057;51.024;7.540;2022-12-24T00:36:39;24.17;;;22.17;;
15454;SDS011;21057;51.024;7.540;2022-12-24T00:39:06;28.03;;;23.43;;
15454;SDS011;21057;51.024;7.540;2022-12-24T00:41:33;24.93;;;22.50;;
15454;SDS011;21057;51.024;7.540;2022-12-24T00:44:02;23.53;;;21.30;;
15454;SDS011;21057;51.024;7.540;2022-12-24T00:46:31;25.47;;;23.17;;
15454;SDS011;21057;51.024;7.540;2022-12-24T00:48:59;24.70;;;22.50;;
15454;SDS011;21057;51.024;7.540;2022-12-24T00:51:26;25.17;;;22.67;;
15454;SDS011;21057;51.024;7.540;2022-12-24T00:53:53;25.43;;;23.00;;
15454;SDS011;21057;51.024;7.540;2022-12-24T00:56:20;26.27;;;23.93;;
15454;SDS011;21057;51.024;7.540;2022-12-24T00:58:47;24.83;;;23.10;;
15454;SDS011;21057;51.024;7.540;2022-12-24T01:01:16;26.03;;;23.13;;
15454;SDS011;21057;51.024;7.540;2022-12-24T01:03:43;25.13;;;23.07;;
15454;SDS011;21057;51.024;7.540;2022-12-24T01:06:11;25.70;;;23.13;;
15454;SDS011;21057;51.024;7.540;2022-12-24T01:08:38;25.90;;;23.40;;
15454;SDS011;21057;51.024;7.540;2022-12-24T01:11:06;25.27;;;22.73;;
15454;SDS011;21057;51.024;7.540;2022-12-24T01:13:34;25.23;;;22.83;;
15454;SDS011;21057;51.024;7.540;2022-12-24T01:16:02;25.10;;;23.03;;
15454;SDS011;21057;51.024;7.540;2022-12-24T01:18:30;31.60;;;24.13;;
15454;SDS011;21057;51.024;7.540;2022-12-24T01:20:58;25.87;;;23.30;;
15454;SDS011;21057;51.024;7.540;2022-12-24T01:23:27;25.97;;;23.37;;
15454;SDS011;21057;51.024;7.540;2022-12-24T01:25:55;26.67;;;24.33;;
15454;SDS011;21057;51.024;7.540;2022-12-24T01:28:25;27.70;;;25.13;;
15454;SDS011;21057;51.024;7.540;2022-12-24T01:30:53;28.27;;;25.80;;
15454;SDS011;21057;51.024;7.540;2022-12-24T01:33:20;29.17;;;26.13;;
15454;SDS011;21057;51.024;7.540;2022-12-24T01:35:48;28.63;;;26.73;;
15454;SDS011;21057;51.024;7.540;2022-12-24T01:38:15;28.50;;;26.13;;
15454;SDS011;21057;51.024;7.540;2022-12-24T01:40:42;27.67;;;25.40;;
15454;SDS011;21057;51.024;7.540;2022-12-24T01:43:27;29.53;;;27.33;;
15454;SDS011;21057;51.024;7.540;2022-12-24T01:45:57;32.50;;;29.00;;
15454;SDS011;21057;51.024;7.540;2022-12-24T01:48:33;33.00;;;26.67;;
15454;SDS011;21057;51.024;7.540;2022-12-24T01:51:07;29.23;;;26.20;;
15454;SDS011;21057;51.024;7.540;2022-12-24T01:53:40;30.53;;;27.83;;
15454;SDS011;21057;51.024;7.540;2022-12-24T01:56:09;29.87;;;27.33;;
15454;SDS011;21057;51.024;7.540;2022-12-24T01:58:39;32.43;;;26.30;;
15454;SDS011;21057;51.024;7.540;2022-12-24T02:01:08;29.40;;;27.27;;
15454;SDS011;21057;51.024;7.540;2022-12-24T02:03:35;28.10;;;26.00;;
15454;SDS011;21057;51.024;7.540;2022-12-24T02:06:02;28.93;;;26.07;;
15454;SDS011;21057;51.024;7.540;2022-12-24T02:08:31;28.37;;;26.00;;
15454;SDS011;21057;51.024;7.540;2022-12-24T02:11:08;28.83;;;26.73;;
15454;SDS011;21057;51.024;7.540;2022-12-24T02:13:36;31.17;;;28.60;;
15454;SDS011;21057;51.024;7.540;2022-12-24T02:16:06;30.70;;;26.83;;
15454;SDS011;21057;51.024;7.540;2022-12-24T02:18:44;30.60;;;28.10;;
15454;SDS011;21057;51.024;7.540;2022-12-24T02:21:27;28.37;;;26.47;;
15454;SDS011;21057;51.024;7.540;2022-12-24T02:24:17;30.70;;;26.40;;
15454;SDS011;21057;51.024;7.540;2022-12-24T02:27:08;30.33;;;25.23;;
15454;SDS011;21057;51.024;7.540;2022-12-24T02:29:48;31.63;;;25.27;;
15454;SDS011;21057;51.024;7.540;2022-12-24T02:32:40;27.27;;;25.00;;
15454;SDS011;21057;51.024;7.540;2022-12-24T02:35:26;27.33;;;24.67;;
15454;SDS011;21057;51.024;7.540;2022-12-24T02:38:02;26.97;;;24.83;;
15454;SDS011;21057;51.024;7.540;2022-12-24T02:40:34;26.40;;;24.50;;
15454;SDS011;21057;51.024;7.540;2022-12-24T02:43:08;27.23;;;25.13;;
15454;SDS011;21057;51.024;7.540;2022-12-24T02:45:37;27.33;;;24.93;;
15454;SDS011;21057;51.024;7.540;2022-12-24T02:48:07;29.63;;;24.87;;
15454;SDS011;21057;51.024;7.540;2022-12-24T02:50:35;26.17;;;24.17;;
15454;SDS011;21057;51.024;7.540;2022-12-24T02:53:02;27.53;;;24.77;;
15454;SDS011;21057;51.024;7.540;2022-12-24T02:55:33;27.17;;;24.37;;
15454;SDS011;21057;51.024;7.540;2022-12-24T02:58:08;26.60;;;24.50;;
15454;SDS011;21057;51.024;7.540;2022-12-24T03:00:48;27.27;;;24.60;;
15454;SDS011;21057;51.024;7.540;2022-12-24T03:03:43;25.70;;;23.57;;
15454;SDS011;21057;51.024;7.540;2022-12-24T03:06:22;27.63;;;24.83;;
15454;SDS011;21057;51.024;7.540;2022-12-24T03:09:05;27.10;;;24.53;;
15454;SDS011;21057;51.024;7.540;2022-12-24T03:11:39;26.30;;;24.10;;
15454;SDS011;21057;51.024;7.540;2022-12-24T03:14:11;32.90;;;25.20;;
15454;SDS011;21057;51.024;7.540;2022-12-24T03:16:41;27.70;;;25.20;;
15454;SDS011;21057;51.024;7.540;2022-12-24T03:19:09;26.27;;;24.57;;
15454;SDS011;21057;51.024;7.540;2022-12-24T03:21:37;26.20;;;24.30;;
15454;SDS011;21057;51.024;7.540;2022-12-24T03:24:06;29.13;;;26.37;;
15454;SDS011;21057;51.024;7.540;2022-12-24T03:26:34;27.53;;;25.73;;
15454;SDS011;21057;51.024;7.540;2022-12-24T03:29:03;28.10;;;26.07;;
15454;SDS011;21057;51.024;7.540;2022-12-24T03:31:38;29.00;;;26.70;;
15454;SDS011;21057;51.024;7.540;2022-12-24T03:34:08;32.47;;;25.93;;
15454;SDS011;21057;51.024;7.540;2022-12-24T03:36:35;29.80;;;26.70;;
15454;SDS011;21057;51.024;7.540;2022-12-24T03:39:02;28.20;;;26.00;;
15454;SDS011;21057;51.024;7.540;2022-12-24T03:41:29;28.50;;;26.30;;
15454;SDS011;21057;51.024;7.540;2022-12-24T03:43:56;28.90;;;25.70;;
15454;SDS011;21057;51.024;7.540;2022-12-24T03:46:23;27.77;;;25.63;;
15454;SDS011;21057;51.024;7.540;2022-12-24T03:48:51;29.10;;;26.77;;
15454;SDS011;21057;51.024;7.540;2022-12-24T03:51:18;28.63;;;26.43;;
15454;SDS011;21057;51.024;7.540;2022-12-24T03:53:46;27.73;;;25.53;;
15454;SDS011;21057;51.024;7.540;2022-12-24T03:56:13;28.20;;;26.07;;
15454;SDS011;21057;51.024;7.540;2022-12-24T03:58:40;30.13;;;27.63;;
15454;SDS011;21057;51.024;7.540;2022-12-24T04:01:07;28.53;;;26.40;;
15454;SDS011;21057;51.024;7.540;2022-12-24T04:03:33;29.47;;;27.10;;
15454;SDS011;21057;51.024;7.540;2022-12-24T04:06:03;28.90;;;26.53;;
15454;SDS011;21057;51.024;7.540;2022-12-24T04:08:31;29.43;;;27.00;;
15454;SDS011;21057;51.024;7.540;2022-12-24T04:10:58;28.67;;;25.70;;
15454;SDS011;21057;51.024;7.540;2022-12-24T04:13:25;29.90;;;27.20;;
15454;SDS011;21057;51.024;7.540;2022-12-24T04:15:55;26.83;;;24.80;;
15454;SDS011;21057;51.024;7.540;2022-12-24T04:18:23;28.53;;;25.90;;
15454;SDS011;21057;51.024;7.540;2022-12-24T04:20:50;27.10;;;25.13;;
15454;SDS011;21057;51.024;7.540;2022-12-24T04:23:18;27.77;;;25.77;;
15454;SDS011;21057;51.024;7.540;2022-12-24T04:25:45;28.40;;;26.17;;
15454;SDS011;21057;51.024;7.540;2022-12-24T04:28:13;28.73;;;26.63;;
15454;SDS011;21057;51.024;7.540;2022-12-24T04:30:40;28.37;;;26.27;;
15454;SDS011;21057;51.024;7.540;2022-12-24T04:33:07;27.70;;;25.77;;
15454;SDS011;21057;51.024;7.540;2022-12-24T04:35:37;30.93;;;28.50;;
15454;SDS011;21057;51.024;7.540;2022-12-24T04:38:05;30.20;;;27.93;;
15454;SDS011;21057;51.024;7.540;2022-12-24T04:40:34;29.77;;;27.77;;
15454;SDS011;21057;51.024;7.540;2022-12-24T04:43:00;28.80;;;26.90;;
15454;SDS011;21057;51.024;7.540;2022-12-24T04:45:27;29.93;;;27.73;;
15454;SDS011;21057;51.024;7.540;2022-12-24T04:47:54;31.87;;;27.83;;
15454;SDS011;21057;51.024;7.540;2022-12-24T04:50:21;32.67;;;29.67;;
15454;SDS011;21057;51.024;7.540;2022-12-24T04:52:48;30.33;;;27.77;;
15454;SDS011;21057;51.024;7.540;2022-12-24T04:55:15;29.93;;;27.70;;
15454;SDS011;21057;51.024;7.540;2022-12-24T04:57:43;30.77;;;28.43;;
15454;SDS011;21057;51.024;7.540;2022-12-24T05:00:10;30.47;;;28.03;;
15454;SDS011;21057;51.024;7.540;2022-12-24T05:02:37;29.60;;;27.70;;
15454;SDS011;21057;51.024;7.540;2022-12-24T05:05:05;30.57;;;28.17;;
15454;SDS011;21057;51.024;7.540;2022-12-24T05:07:32;29.20;;;26.97;;
15454;SDS011;21057;51.024;7.540;2022-12-24T05:09:59;29.93;;;27.57;;
15454;SDS011;21057;51.024;7.540;2022-12-24T05:12:26;30.33;;;28.43;;
15454;SDS011;21057;51.024;7.540;2022-12-24T05:14:55;30.87;;;29.00;;
15454;SDS011;21057;51.024;7.540;2022-12-24T05:17:21;32.07;;;29.30;;
15454;SDS011;21057;51.024;7.540;2022-12-24T05:19:48;31.87;;;29.57;;
15454;SDS011;21057;51.024;7.540;2022-12-24T05:22:15;29.93;;;27.83;;
15454;SDS011;21057;51.024;7.540;2022-12-24T05:25:00;32.73;;;30.40;;
15454;SDS011;21057;51.024;7.540;2022-12-24T05:27:44;33.17;;;30.80;;
15454;SDS011;21057;51.024;7.540;2022-12-24T05:30:13;32.57;;;30.13;;
15454;SDS011;21057;51.024;7.540;2022-12-24T05:32:40;33.33;;;30.93;;
15454;SDS011;21057;51.024;7.540;2022-12-24T05:35:07;30.63;;;28.30;;
15454;SDS011;21057;51.024;7.540;2022-12-24T05:37:34;31.30;;;29.23;;
15454;SDS011;21057;51.024;7.540;2022-12-24T05:40:01;29.97;;;28.10;;
15454;SDS011;21057;51.024;7.540;2022-12-24T05:42:28;30.33;;;28.30;;
15454;SDS011;21057;51.024;7.540;2022-12-24T05:44:54;29.57;;;27.47;;
15454;SDS011;21057;51.024;7.540;2022-12-24T05:47:22;29.60;;;27.50;;
15454;SDS011;21057;51.024;7.540;2022-12-24T05:49:49;28.57;;;26.67;;
15454;SDS011;21057;51.024;7.540;2022-12-24T05:52:16;29.87;;;27.53;;
15454;SDS011;21057;51.024;7.540;2022-12-24T05:54:45;29.43;;;26.83;;
15454;SDS011;21057;51.024;7.540;2022-12-24T05:57:12;30.73;;;28.53;;
15454;SDS011;21057;51.024;7.540;2022-12-24T05:59:39;27.53;;;25.83;;
15454;SDS011;21057;51.024;7.540;2022-12-24T06:02:06;30.03;;;27.53;;
15454;SDS011;21057;51.024;7.540;2022-12-24T06:04:34;31.57;;;29.07;;
15454;SDS011;21057;51.024;7.540;2022-12-24T06:07:00;30.47;;;28.20;;
15454;SDS011;21057;51.024;7.540;2022-12-24T06:09:27;29.67;;;27.57;;
15454;SDS011;21057;51.024;7.540;2022-12-24T06:11:54;30.23;;;27.60;;
15454;SDS011;21057;51.024;7.540;2022-12-24T06:14:21;29.40;;;27.40;;
15454;SDS011;21057;51.024;7.540;2022-12-24T06:16:48;29.73;;;27.03;;
15454;SDS011;21057;51.024;7.540;2022-12-24T06:19:15;30.23;;;28.10;;
15454;SDS011;21057;51.024;7.540;2022-12-24T06:21:43;29.60;;;27.10;;
15454;SDS011;21057;51.024;7.540;2022-12-24T06:24:10;31.00;;;28.77;;
15454;SDS011;21057;51.024;7.540;2022-12-24T06:26:36;32.17;;;29.27;;
15454;SDS011;21057;51.024;7.540;2022-12-24T06:29:03;31.17;;;28.77;;
15454;SDS011;21057;51.024;7.540;2022-12-24T06:31:31;30.63;;;28.20;;
15454;SDS011;21057;51.024;7.540;2022-12-24T06:33:57;28.80;;;26.40;;
15454;SDS011;21057;51.024;7.540;2022-12-24T06:36:24;31.00;;;26.23;;
15454;SDS011;21057;51.024;7.540;2022-12-24T06:38:53;30.03;;;27.10;;
15454;SDS011;21057;51.024;7.540;2022-12-24T06:41:20;30.23;;;27.70;;
15454;SDS011;21057;51.024;7.540;2022-12-24T06:43:48;30.50;;;27.73;;
15454;SDS011;21057;51.024;7.540;2022-12-24T06:46:17;29.43;;;27.40;;
15454;SDS011;21057;51.024;7.540;2022-12-24T06:48:44;31.07;;;28.23;;
15454;SDS011;21057;51.024;7.540;2022-12-24T06:51:12;30.83;;;27.83;;
15454;SDS011;21057;51.024;7.540;2022-12-24T06:53:41;31.63;;;28.40;;
15454;SDS011;21057;51.024;7.540;2022-12-24T06:56:09;30.53;;;28.07;;
15454;SDS011;21057;51.024;7.540;2022-12-24T06:58:38;31.20;;;28.50;;
15454;SDS011;21057;51.024;7.540;2022-12-24T07:01:07;34.17;;;31.20;;
15454;SDS011;21057;51.024;7.540;2022-12-24T07:03:35;32.17;;;29.90;;
15454;SDS011;21057;51.024;7.540;2022-12-24T07:06:03;35.93;;;29.37;;
15454;SDS011;21057;51.024;7.540;2022-12-24T07:08:30;31.60;;;29.07;;
15454;SDS011;21057;51.024;7.540;2022-12-24T07:11:00;32.57;;;29.60;;
15454;SDS011;21057;51.024;7.540;2022-12-24T07:13:28;32.03;;;29.30;;
15454;SDS011;21057;51.024;7.540;2022-12-24T07:15:56;32.03;;;28.93;;
15454;SDS011;21057;51.024;7.540;2022-12-24T07:18:23;30.80;;;27.87;;
15454;SDS011;21057;51.024;7.540;2022-12-24T07:20:50;33.30;;;30.43;;
15454;SDS011;21057;51.024;7.540;2022-12-24T07:23:17;31.57;;;29.17;;
15454;SDS011;21057;51.024;7.540;2022-12-24T07:25:44;30.93;;;28.73;;
15454;SDS011;21057;51.024;7.540;2022-12-24T07:28:11;32.40;;;29.23;;
15454;SDS011;21057;51.024;7.540;2022-12-24T07:30:39;34.43;;;31.77;;
15454;SDS011;21057;51.024;7.540;2022-12-24T07:33:06;33.37;;;30.73;;
15454;SDS011;21057;51.024;7.540;2022-12-24T07:35:36;33.87;;;30.90;;
15454;SDS011;21057;51.024;7.540;2022-12-24T07:38:03;34.47;;;31.20;;
15454;SDS011;21057;51.024;7.540;2022-12-24T07:40:29;32.73;;;30.63;;
15454;SDS011;21057;51.024;7.540;2022-12-24T07:42:58;35.17;;;32.33;;
15454;SDS011;21057;51.024;7.540;2022-12-24T07:45:25;33.40;;;30.17;;
15454;SDS011;21057;51.024;7.540;2022-12-24T07:47:53;32.30;;;30.20;;
15454;SDS011;21057;51.024;7.540;2022-12-24T07:50:20;32.73;;;30.10;;
15454;SDS011;21057;51.024;7.540;2022-12-24T07:52:47;33.50;;;29.97;;
15454;SDS011;21057;51.024;7.540;2022-12-24T07:55:14;33.03;;;30.17;;
15454;SDS011;21057;51.024;7.540;2022-12-24T07:57:41;32.80;;;30.30;;
15454;SDS011;21057;51.024;7.540;2022-12-24T08:00:08;32.57;;;30.10;;
15454;SDS011;21057;51.024;7.540;2022-12-24T08:02:36;31.47;;;29.17;;
15454;SDS011;21057;51.024;7.540;2022-12-24T08:05:05;30.50;;;28.10;;
15454;SDS011;21057;51.024;7.540;2022-12-24T08:07:32;31.73;;;28.77;;
15454;SDS011;21057;51.024;7.540;2022-12-24T08:09:59;31.47;;;28.37;;
15454;SDS011;21057;51.024;7.540;2022-12-24T08:12:26;30.03;;;27.93;;
15454;SDS011;21057;51.024;7.540;2022-12-24T08:14:53;31.93;;;28.93;;
15454;SDS011;21057;51.024;7.540;2022-12-24T08:17:19;31.40;;;28.80;;
15454;SDS011;21057;51.024;7.540;2022-12-24T08:19:46;32.20;;;29.77;;
15454;SDS011;21057;51.024;7.540;2022-12-24T08:22:15;32.67;;;29.87;;
15454;SDS011;21057;51.024;7.540;2022-12-24T08:24:42;34.13;;;30.30;;
15454;SDS011;21057;51.024;7.540;2022-12-24T08:27:08;33.30;;;29.90;;
15454;SDS011;21057;51.024;7.540;2022-12-24T08:29:35;32.53;;;29.87;;
15454;SDS011;21057;51.024;7.540;2022-12-24T08:32:02;33.23;;;29.83;;
15454;SDS011;21057;51.024;7.540;2022-12-24T08:34:29;32.60;;;28.97;;
15454;SDS011;21057;51.024;7.540;2022-12-24T08:36:56;33.13;;;30.17;;
15454;SDS011;21057;51.024;7.540;2022-12-24T08:39:24;30.10;;;27.87;;
15454;SDS011;21057;51.024;7.540;2022-12-24T08:41:51;29.93;;;27.07;;
15454;SDS011;21057;51.024;7.540;2022-12-24T08:44:18;30.70;;;28.10;;
15454;SDS011;21057;51.024;7.540;2022-12-24T08:46:45;31.90;;;28.63;;
15454;SDS011;21057;51.024;7.540;2022-12-24T08:49:12;35.33;;;28.17;;
15454;SDS011;21057;51.024;7.540;2022-12-24T08:51:40;29.27;;;26.73;;
15454;SDS011;21057;51.024;7.540;2022-12-24T08:54:07;30.80;;;28.73;;
15454;SDS011;21057;51.024;7.540;2022-12-24T08:56:35;29.47;;;27.13;;
15454;SDS011;21057;51.024;7.540;2022-12-24T08:59:02;31.07;;;28.03;;
15454;SDS011;21057;51.024;7.540;2022-12-24T09:01:28;31.20;;;28.23;;
15454;SDS011;21057;51.024;7.540;2022-12-24T09:03:55;32.10;;;29.30;;
15454;SDS011;21057;51.024;7.540;2022-12-24T09:06:22;29.47;;;26.87;;
15454;SDS011;21057;51.024;7.540;2022-12-24T09:08:49;30.83;;;28.30;;
15454;SDS011;21057;51.024;7.540;2022-12-24T09:11:16;32.83;;;27.37;;
15454;SDS011;21057;51.024;7.540;2022-12-24T09:13:45;31.00;;;28.07;;
15454;SDS011;21057;51.024;7.540;2022-12-24T09:16:12;33.00;;;30.20;;
15454;SDS011;21057;51.024;7.540;2022-12-24T09:18:39;31.93;;;28.53;;
15454;SDS011;21057;51.024;7.540;2022-12-24T09:21:07;37.77;;;29.70;;
15454;SDS011;21057;51.024;7.540;2022-12-24T09:23:38;37.37;;;27.63;;
15454;SDS011;21057;51.024;7.540;2022-12-24T09:26:06;29.07;;;26.77;;
15454;SDS011;21057;51.024;7.540;2022-12-24T09:28:34;31.40;;;27.80;;
15454;SDS011;21057;51.024;7.540;2022-12-24T09:31:03;29.90;;;27.63;;
15454;SDS011;21057;51.024;7.540;2022-12-24T09:33:31;30.50;;;27.63;;
15454;SDS011;21057;51.024;7.540;2022-12-24T09:36:00;29.67;;;26.97;;
15454;SDS011;21057;51.024;7.540;2022-12-24T09:38:27;28.90;;;26.43;;
15454;SDS011;21057;51.024;7.540;2022-12-24T09:40:55;31.80;;;27.00;;
15454;SDS011;21057;51.024;7.540;2022-12-24T09:43:24;28.03;;;25.40;;
15454;SDS011;21057;51.024;7.540;2022-12-24T09:45:57;30.17;;;25.53;;
15454;SDS011;21057;51.024;7.540;2022-12-24T09:48:33;28.30;;;25.37;;
15454;SDS011;21057;51.024;7.540;2022-12-24T09:51:05;30.10;;;27.03;;
15454;SDS011;21057;51.024;7.540;2022-12-24T09:53:35;27.77;;;25.27;;
15454;SDS011;21057;51.024;7.540;2022-12-24T09:56:08;28.07;;;25.23;;
15454;SDS011;21057;51.024;7.540;2022-12-24T09:58:39;27.43;;;24.77;;
15454;SDS011;21057;51.024;7.540;2022-12-24T10:01:11;28.33;;;25.90;;
15454;SDS011;21057;51.024;7.540;2022-12-24T10:03:39;26.00;;;23.20;;
15454;SDS011;21057;51.024;7.540;2022-12-24T10:06:07;27.77;;;25.23;;
15454;SDS011;21057;51.024;7.540;2022-12-24T10:08:40;28.20;;;25.67;;
15454;SDS011;21057;51.024;7.540;2022-12-24T10:11:18;30.67;;;26.17;;
15454;SDS011;21057;51.024;7.540;2022-12-24T10:13:53;30.40;;;27.27;;
15454;SDS011;21057;51.024;7.540;2022-12-24T10:16:34;38.27;;;25.77;;
15454;SDS011;21057;51.024;7.540;2022-12-24T10:19:10;28.70;;;25.47;;
15454;SDS011;21057;51.024;7.540;2022-12-24T10:21:44;26.63;;;24.67;;
15454;SDS011;21057;51.024;7.540;2022-12-24T10:24:23;26.07;;;24.13;;
15454;SDS011;21057;51.024;7.540;2022-12-24T10:26:56;44.90;;;25.73;;
15454;SDS011;21057;51.024;7.540;2022-12-24T10:29:26;26.60;;;23.90;;
15454;SDS011;21057;51.024;7.540;2022-12-24T10:31:58;26.33;;;24.10;;
15454;SDS011;21057;51.024;7.540;2022-12-24T10:34:32;36.40;;;25.07;;
15454;SDS011;21057;51.024;7.540;2022-12-24T10:37:05;27.73;;;25.03;;
15454;SDS011;21057;51.024;7.540;2022-12-24T10:39:36;26.97;;;24.77;;
15454;SDS011;21057;51.024;7.540;2022-12-24T10:42:03;26.57;;;24.53;;
15454;SDS011;21057;51.024;7.540;2022-12-24T10:44:32;26.80;;;24.03;;
15454;SDS011;21057;51.024;7.540;2022-12-24T10:47:01;31.80;;;25.27;;
15454;SDS011;21057;51.024;7.540;2022-12-24T10:49:31;28.93;;;25.63;;
15454;SDS011;21057;51.024;7.540;2022-12-24T10:52:03;29.33;;;26.33;;
15454;SDS011;21057;51.024;7.540;2022-12-24T10:54:34;29.70;;;26.83;;
15454;SDS011;21057;51.024;7.540;2022-12-24T10:57:04;28.37;;;25.97;;
15454;SDS011;21057;51.024;7.540;2022-12-24T10:59:48;27.80;;;25.07;;
15454;SDS011;21057;51.024;7.540;2022-12-24T11:02:26;28.43;;;26.03;;
15454;SDS011;21057;51.024;7.540;2022-12-24T11:04:54;27.93;;;25.53;;
15454;SDS011;21057;51.024;7.540;2022-12-24T11:07:23;28.03;;;25.47;;
15454;SDS011;21057;51.024;7.540;2022-12-24T11:09:54;31.23;;;28.40;;
15454;SDS011;21057;51.024;7.540;2022-12-24T11:12:22;31.00;;;28.17;;
15454;SDS011;21057;51.024;7.540;2022-12-24T11:14:58;28.43;;;26.27;;
15454;SDS011;21057;51.024;7.540;2022-12-24T11:17:28;29.90;;;26.93;;
15454;SDS011;21057;51.024;7.540;2022-12-24T11:19:55;29.60;;;26.87;;
15454;SDS011;21057;51.024;7.540;2022-12-24T11:22:23;30.90;;;27.73;;
15454;SDS011;21057;51.024;7.540;2022-12-24T11:24:56;30.63;;;27.43;;
15454;SDS011;21057;51.024;7.540;2022-12-24T11:27:31;28.80;;;26.30;;
15454;SDS011;21057;51.024;7.540;2022-12-24T11:30:23;29.13;;;26.50;;
15454;SDS011;21057;51.024;7.540;2022-12-24T11:35:44;34.83;;;27.10;;
15454;SDS011;21057;51.024;7.540;2022-12-24T11:38:16;28.73;;;26.43;;
15454;SDS011;21057;51.024;7.540;2022-12-24T11:40:46;29.03;;;26.13;;
15454;SDS011;21057;51.024;7.540;2022-12-24T11:43:15;29.60;;;26.80;;
15454;SDS011;21057;51.024;7.540;2022-12-24T11:45:47;29.97;;;27.17;;
15454;SDS011;21057;51.024;7.540;2022-12-24T11:48:26;31.83;;;28.03;;
15454;SDS011;21057;51.024;7.540;2022-12-24T11:50:56;33.00;;;26.27;;
15454;SDS011;21057;51.024;7.540;2022-12-24T11:53:24;31.83;;;27.30;;
15454;SDS011;21057;51.024;7.540;2022-12-24T11:55:58;29.10;;;26.00;;
15454;SDS011;21057;51.024;7.540;2022-12-24T11:58:32;29.97;;;27.20;;
15454;SDS011;21057;51.024;7.540;2022-12-24T12:01:08;40.33;;;27.77;;
15454;SDS011;21057;51.024;7.540;2022-12-24T12:03:41;30.13;;;27.40;;
15454;SDS011;21057;51.024;7.540;2022-12-24T12:06:26;29.70;;;27.13;;
15454;SDS011;21057;51.024;7.540;2022-12-24T12:08:58;26.97;;;24.73;;
15454;SDS011;21057;51.024;7.540;2022-12-24T12:11:28;28.80;;;25.83;;
15454;SDS011;21057;51.024;7.540;2022-12-24T12:13:57;27.33;;;24.87;;
15454;SDS011;21057;51.024;7.540;2022-12-24T12:16:27;26.80;;;24.63;;
15454;SDS011;21057;51.024;7.540;2022-12-24T12:19:18;26.80;;;23.97;;
15454;SDS011;21057;51.024;7.540;2022-12-24T12:21:47;25.53;;;23.23;;
15454;SDS011;21057;51.024;7.540;2022-12-24T12:24:15;28.07;;;25.07;;
15454;SDS011;21057;51.024;7.540;2022-12-24T12:26:47;28.00;;;24.23;;
15454;SDS011;21057;51.024;7.540;2022-12-24T12:29:23;30.10;;;23.47;;
15454;SDS011;21057;51.024;7.540;2022-12-24T12:31:55;27.03;;;24.17;;
15454;SDS011;21057;51.024;7.540;2022-12-24T12:34:30;25.03;;;22.70;;
15454;SDS011;21057;51.024;7.540;2022-12-24T12:37:04;29.10;;;24.10;;
15454;SDS011;21057;51.024;7.540;2022-12-24T12:39:35;26.77;;;24.03;;
15454;SDS011;21057;51.024;7.540;2022-12-24T12:42:05;26.33;;;23.77;;
15454;SDS011;21057;51.024;7.540;2022-12-24T12:44:45;30.37;;;23.43;;
15454;SDS011;21057;51.024;7.540;2022-12-24T12:47:29;37.93;;;24.43;;
15454;SDS011;21057;51.024;7.540;2022-12-24T12:50:10;25.40;;;23.13;;
15454;SDS011;21057;51.024;7.540;2022-12-24T12:52:46;24.93;;;22.50;;
15454;SDS011;21057;51.024;7.540;2022-12-24T12:55:38;35.23;;;25.03;;
15454;SDS011;21057;51.024;7.540;2022-12-24T12:58:12;27.00;;;24.43;;
15454;SDS011;21057;51.024;7.540;2022-12-24T13:00:43;28.00;;;25.23;;
15454;SDS011;21057;51.024;7.540;2022-12-24T13:03:20;29.80;;;25.63;;
15454;SDS011;21057;51.024;7.540;2022-12-24T13:06:26;30.77;;;24.60;;
15454;SDS011;21057;51.024;7.540;2022-12-24T13:09:20;26.37;;;24.00;;
15454;SDS011;21057;51.024;7.540;2022-12-24T13:12:13;24.77;;;22.87;;
15454;SDS011;21057;51.024;7.540;2022-12-24T13:14:57;25.93;;;23.57;;
15454;SDS011;21057;51.024;7.540;2022-12-24T13:17:39;24.63;;;22.87;;
15454;SDS011;21057;51.024;7.540;2022-12-24T13:20:30;27.43;;;24.13;;
15454;SDS011;21057;51.024;7.540;2022-12-24T13:23:07;27.87;;;24.93;;
15454;SDS011;21057;51.024;7.540;2022-12-24T13:25:37;27.70;;;25.13;;
15454;SDS011;21057;51.024;7.540;2022-12-24T13:28:17;25.33;;;23.07;;
15454;SDS011;21057;51.024;7.540;2022-12-24T13:33:56;25.40;;;23.20;;
15454;SDS011;21057;51.024;7.540;2022-12-24T13:36:24;25.37;;;23.07;;
15454;SDS011;21057;51.024;7.540;2022-12-24T13:39:17;25.40;;;23.50;;
15454;SDS011;21057;51.024;7.540;2022-12-24T13:41:48;27.00;;;24.67;;
15454;SDS011;21057;51.024;7.540;2022-12-24T13:44:17;26.90;;;24.33;;
15454;SDS011;21057;51.024;7.540;2022-12-24T13:49:56;25.37;;;23.27;;
15454;SDS011;21057;51.024;7.540;2022-12-24T13:52:49;41.60;;;24.90;;
15454;SDS011;21057;51.024;7.540;2022-12-24T13:55:19;27.40;;;24.73;;
15454;SDS011;21057;51.024;7.540;2022-12-24T13:57:52;26.83;;;24.27;;
15454;SDS011;21057;51.024;7.540;2022-12-24T14:00:33;28.53;;;25.77;;
15454;SDS011;21057;51.024;7.540;2022-12-24T14:03:05;28.23;;;22.20;;
15454;SDS011;21057;51.024;7.540;2022-12-24T14:05:45;25.33;;;22.87;;
15454;SDS011;21057;51.024;7.540;2022-12-24T14:08:15;25.60;;;22.57;;
15454;SDS011;21057;51.024;7.540;2022-12-24T14:10:58;27.17;;;22.40;;
15454;SDS011;21057;51.024;7.540;2022-12-24T14:13:50;25.13;;;22.77;;
15454;SDS011;21057;51.024;7.540;2022-12-24T14:16:40;25.87;;;23.23;;
15454;SDS011;21057;51.024;7.540;2022-12-24T14:19:13;24.60;;;22.03;;
15454;SDS011;21057;51.024;7.540;2022-12-24T14:21:45;28.17;;;25.70;;
15454;SDS011;21057;51.024;7.540;2022-12-24T14:24:18;28.47;;;25.60;;
15454;SDS011;21057;51.024;7.540;2022-12-24T14:26:51;28.93;;;26.60;;
15454;SDS011;21057;51.024;7.540;2022-12-24T14:29:21;29.00;;;25.50;;
15454;SDS011;21057;51.024;7.540;2022-12-24T14:31:53;25.07;;;22.90;;
15454;SDS011;21057;51.024;7.540;2022-12-24T14:34:21;24.73;;;22.60;;
15454;SDS011;21057;51.024;7.540;2022-12-24T14:36:48;26.17;;;23.97;;
15454;SDS011;21057;51.024;7.540;2022-12-24T14:39:20;30.53;;;22.83;;
15454;SDS011;21057;51.024;7.540;2022-12-24T14:41:52;25.43;;;23.83;;
15454;SDS011;21057;51.024;7.540;2022-12-24T14:44:27;24.43;;;22.40;;
15454;SDS011;21057;51.024;7.540;2022-12-24T14:47:05;25.43;;;22.83;;
15454;SDS011;21057;51.024;7.540;2022-12-24T14:49:44;24.97;;;22.73;;
15454;SDS011;21057;51.024;7.540;2022-12-24T14:52:25;24.17;;;22.47;;